Aberdeen Gardens, Washington
Current Conditions -  °F | °C
As of 3:53 AM on Friday 24 Oct 2014 (Local Time) from KHQM Reporting Station
Broken Clouds Broken Clouds  
Wind Chill: 44°   Ceiling: 7000
Heat Index: 48°   Visibility: 7mi
Dew Point: 47°   Wind: 8mph
Humidity: 96%   Direction: 40°NE
Pressure: 30"   Gusts: NA
Location:  47.1445°N, 123.771°W
Report Text: KHQM 241053Z AUTO 04007KT 7SM BKN070 09/08 A3000 RMK AO2 SLP161 T00890083
Loading
Personal Weather Stations






























Interactive Weather Map
Tropical Storm Tracking
New forecast layout! Learn more

10-Day Weather Forecast

Advertisements
Track Severe Weather on mobile